Koningsbosch, Netherlands
Current Conditions -  °F | °C
As of 2:25 AM on Sunday 26 Oct 2014 (Local Time) from EHBK Reporting Station
Haze Haze  
Wind Chill: 50°   Ceiling: 4200
Heat Index: 50°   Visibility: 2.9mi
Dew Point: 50°   Wind: 8mph
Humidity: 100%   Direction: 210°SSW
Pressure: 30.21"   Gusts: NA
Location:  51.05°N, 5.96°E
Report Text: EHBK 260025Z AUTO 21007KT 4700 BR OVC042 10/10 Q1023
Loading
Personal Weather Stations






























Interactive Weather Map
Tropical Storm Tracking
New forecast layout! Learn more

10-Day Weather Forecast

Advertisements
Track Severe Weather on mobile